Time;durP1;ratioP1;P1;durP2;ratioP2;P2;SDS_P1;SDS_P2;PMS_P1;PMS_P2;Temp;Humidity;BMP_temperature;BMP_pressure;BME280_temperature;BME280_humidity;BME280_pressure;Samples;Min_cycle;Max_cycle;Signal;HPM_P1;HPM_P2
2023/07/04 00:01:31;;;;;;;1.82;1.70;;;18.40;68.40;;;;;;896808;155;27400;-71
2023/07/04 00:03:57;;;;;;;1.90;1.80;;;18.30;69.30;;;;;;896911;157;27382;-71
2023/07/04 00:06:25;;;;;;;2.00;1.90;;;18.30;68.70;;;;;;895477;155;27488;-70
2023/07/04 00:08:51;;;;;;;2.65;2.00;;;18.30;68.90;;;;;;897739;155;27387;-71
2023/07/04 00:11:19;;;;;;;2.35;2.17;;;18.20;69.00;;;;;;898594;157;27290;-71
2023/07/04 00:13:44;;;;;;;2.90;2.27;;;18.20;69.10;;;;;;896228;155;27814;-71
2023/07/04 00:16:10;;;;;;;2.33;2.00;;;18.20;69.30;;;;;;898340;155;27565;-71
2023/07/04 00:18:37;;;;;;;2.40;2.10;;;18.10;69.50;;;;;;897841;155;27404;-71
2023/07/04 00:21:11;;;;;;;4.70;2.60;;;18.10;69.70;;;;;;899129;155;27366;-71
2023/07/04 00:23:36;;;;;;;2.20;2.00;;;18.10;70.00;;;;;;898585;155;27780;-71
2023/07/04 00:26:02;;;;;;;3.98;2.12;;;18.00;70.10;;;;;;897617;155;27504;-71
2023/07/04 00:28:29;;;;;;;2.27;2.08;;;18.00;70.30;;;;;;896795;155;27431;-70
2023/07/04 00:30:55;;;;;;;2.52;2.00;;;18.00;70.40;;;;;;897211;155;27378;-71
2023/07/04 00:33:22;;;;;;;2.40;2.20;;;17.90;70.60;;;;;;895856;155;27498;-70
2023/07/04 00:35:48;;;;;;;2.67;1.98;;;17.90;70.70;;;;;;897572;155;27484;-71
2023/07/04 00:38:16;;;;;;;2.40;2.27;;;17.80;70.80;;;;;;897398;157;27388;-70
2023/07/04 00:40:43;;;;;;;2.10;2.00;;;17.80;71.00;;;;;;898286;155;27362;-71
2023/07/04 00:43:09;;;;;;;2.10;1.90;;;17.80;71.90;;;;;;896647;155;27468;-70
2023/07/04 00:45:37;;;;;;;2.40;2.20;;;17.70;71.20;;;;;;896474;155;27509;-71
2023/07/04 00:48:03;;;;;;;2.20;1.90;;;17.70;71.40;;;;;;897614;155;27501;-71
2023/07/04 00:50:29;;;;;;;2.10;1.90;;;17.70;71.60;;;;;;897982;155;27459;-70
2023/07/04 00:52:55;;;;;;;1.82;1.72;;;17.60;71.70;;;;;;897489;155;27476;-71
2023/07/04 00:55:21;;;;;;;1.87;1.77;;;17.60;71.90;;;;;;898901;155;27384;-71
2023/07/04 00:57:48;;;;;;;2.05;1.85;;;17.60;72.00;;;;;;898403;155;27418;-71
2023/07/04 01:00:20;;;;;;;3.30;1.95;;;17.50;71.90;;;;;;899101;155;27452;-70
2023/07/04 01:02:45;;;;;;;2.30;2.10;;;17.40;72.10;;;;;;897275;157;27403;-71
2023/07/04 01:05:08;;;;;;;3.87;2.00;;;17.40;72.20;;;;;;900293;155;27474;-71
2023/07/04 01:07:43;;;;;;;2.12;1.95;;;17.40;72.60;;;;;;899749;155;27402;-70
2023/07/04 01:10:18;;;;;;;2.95;2.10;;;17.30;72.80;;;;;;899152;155;27355;-71
2023/07/04 01:12:45;;;;;;;2.83;2.00;;;17.30;72.80;;;;;;899605;155;27377;-71
2023/07/04 01:15:11;;;;;;;2.72;2.52;;;17.30;73.00;;;;;;900026;155;27439;-70
2023/07/04 01:17:41;;;;;;;2.10;1.90;;;17.20;73.30;;;;;;898486;155;28139;-71
2023/07/04 01:20:06;;;;;;;2.35;2.15;;;17.20;73.50;;;;;;897832;155;27364;-71
2023/07/04 01:22:56;;;;;;;2.05;1.95;;;17.10;73.70;;;;;;898428;155;27349;-71
2023/07/04 01:25:47;;;;;;;2.77;2.08;;;17.10;73.90;;;;;;899941;155;27425;-71
2023/07/04 01:28:13;;;;;;;2.10;2.00;;;17.10;73.80;;;;;;897949;155;27359;-71
2023/07/04 01:30:40;;;;;;;2.52;2.33;;;17.00;73.90;;;;;;898975;155;27426;-70
2023/07/04 01:33:08;;;;;;;2.55;2.30;;;17.00;74.40;;;;;;898609;155;27476;-70
2023/07/04 01:35:33;;;;;;;3.47;2.33;;;16.90;74.70;;;;;;873668;161;27512;-71
2023/07/04 01:38:00;;;;;;;4.62;2.33;;;17.00;75.00;;;;;;900168;155;27327;-71
2023/07/04 01:40:26;;;;;;;2.77;2.58;;;16.90;75.30;;;;;;897929;155;27487;-71
2023/07/04 01:42:53;;;;;;;2.95;2.12;;;16.90;75.50;;;;;;897834;155;27401;-71
2023/07/04 01:45:19;;;;;;;2.60;2.40;;;16.90;75.70;;;;;;898762;155;27633;-71
2023/07/04 01:47:46;;;;;;;2.33;2.12;;;16.90;75.80;;;;;;899117;155;27377;-71
2023/07/04 01:50:13;;;;;;;3.58;2.20;;;16.90;76.00;;;;;;900193;155;27354;-71
2023/07/04 01:52:39;;;;;;;2.85;2.55;;;16.90;76.20;;;;;;899644;154;27738;-70
2023/07/04 01:55:06;;;;;;;2.42;2.22;;;16.90;76.20;;;;;;898198;155;27433;-71
2023/07/04 01:57:33;;;;;;;3.55;1.90;;;16.90;76.30;;;;;;898378;157;27415;-71
2023/07/04 01:59:59;;;;;;;2.30;2.10;;;16.90;76.30;;;;;;899776;157;27509;-71
2023/07/04 02:02:26;;;;;;;2.20;2.00;;;16.90;76.40;;;;;;897476;155;27487;-71
2023/07/04 02:04:52;;;;;;;2.17;1.98;;;16.80;76.60;;;;;;899267;155;27488;-71
2023/07/04 02:07:19;;;;;;;2.25;2.05;;;16.80;76.80;;;;;;900046;155;27513;-70
2023/07/04 02:09:46;;;;;;;2.73;2.53;;;16.80;77.00;;;;;;898012;155;27477;-70
2023/07/04 02:12:12;;;;;;;2.05;1.95;;;16.80;77.20;;;;;;898473;157;27368;-71
2023/07/04 02:14:39;;;;;;;2.40;2.20;;;16.80;77.20;;;;;;898148;155;27392;-70
2023/07/04 02:17:05;;;;;;;2.40;2.20;;;16.80;77.40;;;;;;898115;155;27782;-70
2023/07/04 02:19:32;;;;;;;2.40;2.20;;;16.80;77.50;;;;;;898322;156;27432;-70
2023/07/04 02:21:58;;;;;;;2.20;2.00;;;16.70;77.50;;;;;;898415;155;27470;-71
2023/07/04 02:24:25;;;;;;;2.40;2.20;;;16.80;77.80;;;;;;901830;155;27375;-70
2023/07/04 02:26:52;;;;;;;3.83;2.33;;;16.80;78.00;;;;;;899916;155;27781;-71
2023/07/04 02:29:18;;;;;;;2.67;2.33;;;16.70;78.20;;;;;;897848;155;27844;-71
2023/07/04 02:31:45;;;;;;;2.50;2.12;;;16.70;78.40;;;;;;897035;155;27375;-71
2023/07/04 02:34:11;;;;;;;2.50;2.30;;;16.70;78.60;;;;;;898114;155;27531;-71
2023/07/04 02:36:38;;;;;;;2.60;2.40;;;16.70;78.80;;;;;;897930;155;27382;-71
2023/07/04 02:39:05;;;;;;;3.20;2.22;;;16.70;79.10;;;;;;900984;155;27519;-71
2023/07/04 02:41:32;;;;;;;3.40;2.25;;;16.70;79.20;;;;;;898803;155;27376;-71
2023/07/04 02:43:58;;;;;;;2.67;2.07;;;16.70;79.60;;;;;;900048;155;27474;-71
2023/07/04 02:46:24;;;;;;;2.40;2.20;;;16.60;79.70;;;;;;896448;155;27391;-73
2023/07/04 02:48:51;;;;;;;2.95;2.52;;;16.60;79.80;;;;;;899510;155;27393;-73
2023/07/04 02:51:18;;;;;;;3.00;2.67;;;16.60;80.00;;;;;;897938;155;27801;-73
2023/07/04 02:53:44;;;;;;;2.67;2.47;;;16.60;80.30;;;;;;900176;155;27481;-73
2023/07/04 02:56:11;;;;;;;2.90;2.60;;;16.60;80.60;;;;;;898357;155;27319;-73
2023/07/04 02:58:37;;;;;;;3.65;2.70;;;16.60;81.00;;;;;;899016;155;27519;-73
2023/07/04 03:01:04;;;;;;;3.40;2.55;;;16.60;81.20;;;;;;897456;155;27459;-73
2023/07/04 03:03:30;;;;;;;2.97;2.70;;;16.60;81.30;;;;;;898850;157;27390;-73
2023/07/04 03:05:58;;;;;;;3.13;2.50;;;16.60;81.40;;;;;;898971;157;27320;-73
2023/07/04 03:08:24;;;;;;;3.27;2.87;;;16.60;81.80;;;;;;898802;156;27485;-73
2023/07/04 03:10:50;;;;;;;3.92;2.50;;;16.60;82.20;;;;;;899023;155;27507;-73
2023/07/04 03:13:17;;;;;;;2.77;2.57;;;16.60;82.30;;;;;;896068;155;27467;-73
2023/07/04 03:15:43;;;;;;;3.27;2.60;;;16.60;82.70;;;;;;897210;155;27388;-73
2023/07/04 03:18:10;;;;;;;2.53;2.33;;;16.60;82.90;;;;;;899275;157;27378;-73
2023/07/04 03:20:37;;;;;;;4.17;2.70;;;16.60;83.00;;;;;;899827;155;27498;-73
2023/07/04 03:23:03;;;;;;;3.10;2.80;;;16.60;83.20;;;;;;900279;155;27343;-73
2023/07/04 03:25:30;;;;;;;2.93;2.47;;;16.60;83.50;;;;;;899171;157;27321;-73
2023/07/04 03:27:56;;;;;;;2.53;2.33;;;16.60;83.90;;;;;;898635;155;27361;-73
2023/07/04 03:30:23;;;;;;;3.60;2.87;;;16.60;84.10;;;;;;897975;155;27484;-73
2023/07/04 03:32:50;;;;;;;3.10;2.60;;;16.60;84.20;;;;;;898940;157;27419;-73
2023/07/04 03:35:16;;;;;;;2.60;2.40;;;16.60;84.70;;;;;;899233;155;27504;-73
2023/07/04 03:37:43;;;;;;;3.00;2.70;;;16.60;85.10;;;;;;900239;155;27391;-73
2023/07/04 03:40:09;;;;;;;2.50;2.30;;;16.60;85.40;;;;;;898920;155;27391;-73
2023/07/04 03:42:36;;;;;;;3.52;2.75;;;16.60;85.70;;;;;;899648;155;27432;-73
2023/07/04 03:45:02;;;;;;;3.17;2.67;;;16.60;86.10;;;;;;899895;155;27380;-73
2023/07/04 03:47:29;;;;;;;3.37;2.58;;;16.60;86.60;;;;;;898728;155;27472;-73
2023/07/04 03:49:56;;;;;;;2.72;2.50;;;16.60;86.80;;;;;;899140;155;27506;-73
2023/07/04 03:52:22;;;;;;;2.77;2.47;;;16.70;87.20;;;;;;896888;155;27412;-73
2023/07/04 03:54:49;;;;;;;4.33;2.67;;;16.70;87.70;;;;;;898083;155;27404;-73
2023/07/04 03:57:15;;;;;;;3.55;2.77;;;16.70;88.00;;;;;;897997;155;27379;-73
2023/07/04 03:59:42;;;;;;;2.73;2.53;;;16.70;88.30;;;;;;897310;155;27740;-73
2023/07/04 04:02:09;;;;;;;4.33;3.87;;;16.80;88.90;;;;;;899150;155;27518;-73
2023/07/04 04:04:39;;;;;;;2.62;2.42;;;16.80;89.20;;;;;;900123;155;27526;-73
2023/07/04 04:07:02;;;;;;;3.42;2.83;;;16.90;89.50;;;;;;897819;155;27300;-73
2023/07/04 04:09:28;;;;;;;3.22;2.55;;;17.00;89.80;;;;;;898616;155;27392;-73
2023/07/04 04:11:55;;;;;;;4.85;2.80;;;17.00;89.90;;;;;;898479;155;27367;-73
2023/07/04 04:14:22;;;;;;;6.12;2.83;;;17.10;90.00;;;;;;898990;155;27405;-73
2023/07/04 04:16:49;;;;;;;5.60;3.22;;;17.10;90.10;;;;;;900061;155;27389;-73
2023/07/04 04:19:15;;;;;;;2.80;2.60;;;17.20;90.20;;;;;;898880;155;27478;-73
2023/07/04 04:21:41;;;;;;;3.58;2.70;;;17.30;90.20;;;;;;897552;155;27433;-73
2023/07/04 04:24:08;;;;;;;3.70;2.58;;;17.40;90.30;;;;;;899757;156;27388;-73
2023/07/04 04:26:38;;;;;;;2.87;2.35;;;17.50;90.30;;;;;;900826;154;27497;-73
2023/07/04 04:29:01;;;;;;;8.18;3.27;;;17.50;90.30;;;;;;901590;154;27374;-73
2023/07/04 04:31:28;;;;;;;3.33;2.67;;;17.60;90.20;;;;;;900385;154;27389;-73
2023/07/04 04:33:54;;;;;;;3.42;2.80;;;17.80;90.30;;;;;;899770;156;27448;-73
2023/07/04 04:36:21;;;;;;;3.80;3.08;;;17.90;90.30;;;;;;899415;155;27422;-73
2023/07/04 04:38:49;;;;;;;4.75;2.87;;;17.90;90.10;;;;;;897753;155;27398;-73
2023/07/04 04:41:14;;;;;;;5.20;2.70;;;18.10;90.00;;;;;;898143;155;27552;-73
2023/07/04 04:43:41;;;;;;;3.70;2.90;;;18.20;90.00;;;;;;898344;155;27507;-73
2023/07/04 04:46:07;;;;;;;3.62;2.62;;;18.30;89.90;;;;;;898841;155;27407;-73
2023/07/04 04:48:37;;;;;;;3.65;3.17;;;18.40;89.80;;;;;;899803;155;27512;-73
2023/07/04 04:51:10;;;;;;;3.30;2.58;;;18.50;89.40;;;;;;899357;155;27490;-73
2023/07/04 04:53:34;;;;;;;3.05;2.75;;;18.60;89.00;;;;;;897887;155;27404;-73
2023/07/04 04:55:59;;;;;;;3.77;2.40;;;18.70;88.70;;;;;;897851;155;27486;-73
2023/07/04 04:58:26;;;;;;;2.85;2.65;;;18.90;88.70;;;;;;900813;155;27418;-73
2023/07/04 05:00:52;;;;;;;6.40;3.08;;;19.10;89.20;;;;;;897055;155;27368;-73
2023/07/04 05:03:19;;;;;;;3.52;2.50;;;19.20;90.10;;;;;;899294;157;27456;-73
2023/07/04 05:05:46;;;;;;;3.00;2.42;;;19.50;91.10;;;;;;898608;155;27450;-73
2023/07/04 05:08:12;;;;;;;4.92;2.42;;;19.80;92.10;;;;;;898751;155;27418;-73
2023/07/04 05:10:39;;;;;;;2.75;2.45;;;20.20;92.50;;;;;;898930;155;27514;-73
2023/07/04 05:13:05;;;;;;;2.77;2.52;;;20.70;92.50;;;;;;900285;155;27462;-73
2023/07/04 05:15:32;;;;;;;3.70;2.50;;;21.20;91.90;;;;;;898927;155;27403;-73
2023/07/04 05:17:59;;;;;;;2.83;2.42;;;21.80;91.20;;;;;;896876;155;27364;-73
2023/07/04 05:20:25;;;;;;;3.33;2.72;;;22.40;90.50;;;;;;897350;155;27493;-73
2023/07/04 05:22:57;;;;;;;4.97;2.62;;;23.00;88.60;;;;;;898286;155;27516;-73
2023/07/04 05:25:21;;;;;;;3.02;2.52;;;23.60;85.40;;;;;;901016;155;27784;-73
2023/07/04 05:27:48;;;;;;;2.47;2.22;;;24.30;82.60;;;;;;899854;155;27478;-73
2023/07/04 05:30:14;;;;;;;4.03;2.83;;;24.90;79.80;;;;;;898946;157;27379;-73
2023/07/04 05:32:41;;;;;;;2.25;2.02;;;25.60;77.80;;;;;;899276;155;27388;-74
2023/07/04 05:35:08;;;;;;;3.08;2.55;;;26.20;76.00;;;;;;898000;157;27383;-74
2023/07/04 05:37:34;;;;;;;4.60;2.45;;;26.80;73.90;;;;;;898026;155;27424;-73
2023/07/04 05:40:01;;;;;;;2.27;2.10;;;27.50;71.90;;;;;;898658;155;27438;-73
2023/07/04 05:42:29;;;;;;;3.30;2.45;;;28.10;69.90;;;;;;896994;155;27399;-74
2023/07/04 05:44:54;;;;;;;2.67;2.30;;;28.70;68.20;;;;;;899106;155;27484;-74
2023/07/04 05:47:21;;;;;;;3.58;2.47;;;29.30;65.80;;;;;;898387;155;27359;-74
2023/07/04 05:49:47;;;;;;;4.35;2.35;;;29.90;63.60;;;;;;899326;155;26398;-74
2023/07/04 05:52:14;;;;;;;3.40;2.45;;;30.40;61.80;;;;;;900046;155;27403;-74
2023/07/04 05:54:40;;;;;;;3.40;2.27;;;30.90;60.20;;;;;;899603;155;27347;-74
2023/07/04 05:57:07;;;;;;;3.65;2.45;;;31.30;58.60;;;;;;898104;155;27458;-74
2023/07/04 05:59:34;;;;;;;3.10;2.45;;;31.60;57.60;;;;;;900542;155;27405;-74
2023/07/04 06:02:00;;;;;;;3.17;2.77;;;32.00;56.80;;;;;;899452;155;27499;-74
2023/07/04 06:04:27;;;;;;;4.97;2.92;;;32.40;56.10;;;;;;899232;157;27511;-74
2023/07/04 06:06:53;;;;;;;3.20;2.52;;;32.70;55.10;;;;;;900111;155;27515;-74
2023/07/04 06:09:20;;;;;;;5.15;3.02;;;33.00;54.50;;;;;;898725;155;27364;-74
2023/07/04 06:11:46;;;;;;;3.42;2.90;;;33.30;54.00;;;;;;900279;155;26358;-74
2023/07/04 06:14:19;;;;;;;5.47;2.85;;;33.70;53.10;;;;;;898548;157;27487;-74
2023/07/04 06:16:45;;;;;;;3.90;2.77;;;34.10;52.40;;;;;;900914;155;26299;-74
2023/07/04 06:19:12;;;;;;;5.15;2.95;;;34.40;51.70;;;;;;898983;155;26655;-73
2023/07/04 06:21:38;;;;;;;2.90;2.65;;;34.70;50.60;;;;;;898324;155;27540;-73
2023/07/04 06:24:05;;;;;;;5.72;2.80;;;35.00;50.40;;;;;;898573;157;26329;-73
2023/07/04 06:26:32;;;;;;;3.42;2.50;;;35.30;48.90;;;;;;898801;155;26366;-74
2023/07/04 06:28:58;;;;;;;4.53;2.83;;;35.40;48.20;;;;;;898861;155;26298;-73
2023/07/04 06:31:25;;;;;;;3.47;2.20;;;35.60;47.60;;;;;;897500;155;27370;-73
2023/07/04 06:33:51;;;;;;;3.00;2.67;;;35.80;47.40;;;;;;897713;155;26434;-73
2023/07/04 06:36:18;;;;;;;2.92;2.30;;;36.10;47.00;;;;;;899011;155;26326;-73
2023/07/04 06:38:44;;;;;;;3.33;2.80;;;36.20;46.30;;;;;;899521;155;26337;-73
2023/07/04 06:41:11;;;;;;;4.75;2.80;;;36.50;45.50;;;;;;898746;155;26755;-73
2023/07/04 06:43:38;;;;;;;2.60;2.40;;;36.70;44.90;;;;;;898814;155;26421;-73
2023/07/04 06:46:04;;;;;;;3.00;2.42;;;36.80;44.30;;;;;;898894;155;26317;-73
2023/07/04 06:48:31;;;;;;;3.80;2.47;;;36.90;44.00;;;;;;901035;155;26351;-73
2023/07/04 06:50:57;;;;;;;4.12;2.40;;;37.10;43.50;;;;;;897035;155;26387;-73
2023/07/04 06:53:24;;;;;;;3.22;2.67;;;37.20;43.10;;;;;;899759;155;26447;-73
2023/07/04 06:55:50;;;;;;;2.67;2.15;;;37.40;42.60;;;;;;899771;155;26327;-73
2023/07/04 06:58:17;;;;;;;4.28;2.50;;;37.50;42.10;;;;;;899978;155;26257;-73
2023/07/04 07:00:44;;;;;;;3.92;2.50;;;37.70;41.60;;;;;;898660;155;26439;-73
2023/07/04 07:03:10;;;;;;;2.60;2.40;;;37.80;41.20;;;;;;901235;155;26313;-73
2023/07/04 07:05:40;;;;;;;2.87;2.58;;;37.90;40.90;;;;;;900544;155;26312;-73
2023/07/04 07:08:06;;;;;;;4.65;3.15;;;38.10;40.70;;;;;;898643;155;26347;-72
2023/07/04 07:10:36;;;;;;;5.40;2.62;;;38.30;40.30;;;;;;897609;155;26301;-73
2023/07/04 07:12:59;;;;;;;4.87;2.52;;;38.50;39.80;;;;;;899972;154;26257;-73
2023/07/04 07:15:26;;;;;;;3.58;2.67;;;38.60;39.30;;;;;;900107;155;26332;-73
2023/07/04 07:17:53;;;;;;;2.85;2.30;;;38.80;39.20;;;;;;900035;155;26301;-73
2023/07/04 07:20:19;;;;;;;4.37;2.37;;;38.90;38.40;;;;;;899132;155;26403;-73
2023/07/04 07:22:46;;;;;;;2.90;2.45;;;39.00;38.20;;;;;;898438;155;26332;-73
2023/07/04 07:25:12;;;;;;;4.35;2.20;;;39.20;38.20;;;;;;900346;155;26298;-73
2023/07/04 07:27:39;;;;;;;3.33;2.17;;;39.30;38.00;;;;;;899811;155;26401;-73
2023/07/04 07:30:06;;;;;;;2.47;2.10;;;39.60;37.90;;;;;;898422;155;26324;-73
2023/07/04 07:32:32;;;;;;;3.65;2.00;;;39.90;37.50;;;;;;900210;155;26288;-73
2023/07/04 07:34:59;;;;;;;2.75;2.05;;;40.20;37.10;;;;;;898403;155;26333;-73
2023/07/04 07:37:26;;;;;;;2.25;2.05;;;40.40;36.50;;;;;;899910;155;26273;-73
2023/07/04 07:39:52;;;;;;;2.33;1.90;;;40.70;35.80;;;;;;897724;155;26321;-73
2023/07/04 07:42:19;;;;;;;2.47;1.92;;;40.90;35.00;;;;;;897205;155;26356;-73
2023/07/04 07:44:45;;;;;;;2.92;2.02;;;41.10;34.90;;;;;;899490;155;26325;-73
2023/07/04 07:47:12;;;;;;;3.37;1.85;;;41.30;34.30;;;;;;899994;157;26370;-73
2023/07/04 07:49:39;;;;;;;3.67;1.87;;;41.50;33.90;;;;;;900176;155;26406;-73
2023/07/04 07:52:05;;;;;;;2.75;1.85;;;41.60;33.50;;;;;;897503;155;26367;-73
2023/07/04 07:54:32;;;;;;;2.42;2.20;;;41.80;33.30;;;;;;899320;155;26262;-73
2023/07/04 07:56:58;;;;;;;3.33;2.30;;;41.90;32.80;;;;;;897037;155;26376;-73
2023/07/04 07:59:25;;;;;;;3.80;2.27;;;42.10;32.70;;;;;;897981;155;26386;-73
2023/07/04 08:01:52;;;;;;;2.25;1.98;;;42.20;32.40;;;;;;899455;155;26325;-73
2023/07/04 08:04:18;;;;;;;2.33;2.00;;;42.30;32.50;;;;;;898751;155;26301;-73
2023/07/04 08:06:45;;;;;;;2.87;1.98;;;42.50;32.00;;;;;;899526;155;26272;-73
2023/07/04 08:09:11;;;;;;;3.83;2.12;;;42.60;31.60;;;;;;899656;155;26288;-73
2023/07/04 08:11:38;;;;;;;2.58;1.87;;;42.90;31.30;;;;;;899071;155;26394;-73
2023/07/04 08:14:04;;;;;;;2.72;2.12;;;43.00;31.00;;;;;;897797;155;26416;-73
2023/07/04 08:16:31;;;;;;;3.20;2.08;;;43.10;30.70;;;;;;901103;155;26377;-73
2023/07/04 08:18:58;;;;;;;14.80;2.67;;;43.30;30.70;;;;;;899535;155;26262;-73
2023/07/04 08:21:24;;;;;;;2.83;2.33;;;43.50;30.40;;;;;;899279;155;26293;-73
2023/07/04 08:23:51;;;;;;;2.92;2.33;;;43.70;30.20;;;;;;898357;155;26426;-73
2023/07/04 08:26:20;;;;;;;4.30;2.27;;;43.80;30.00;;;;;;900140;155;26296;-73
2023/07/04 08:28:47;;;;;;;3.92;2.10;;;44.00;29.80;;;;;;900792;155;26336;-75
2023/07/04 08:31:17;;;;;;;3.27;2.17;;;44.10;29.50;;;;;;898183;155;26405;-75
2023/07/04 08:33:40;;;;;;;2.33;2.10;;;44.30;29.10;;;;;;897286;155;26413;-75
2023/07/04 08:36:07;;;;;;;2.55;2.12;;;44.40;29.00;;;;;;897501;155;26325;-75
2023/07/04 08:38:33;;;;;;;2.55;2.30;;;44.50;28.80;;;;;;899620;155;26339;-75
2023/07/04 08:41:00;;;;;;;2.70;2.08;;;44.60;28.50;;;;;;899526;155;26335;-75
2023/07/04 08:43:26;;;;;;;2.35;2.15;;;44.50;28.20;;;;;;897382;155;26325;-75
2023/07/04 08:45:53;;;;;;;3.35;2.10;;;44.60;28.10;;;;;;895509;155;26402;-75
2023/07/04 08:48:19;;;;;;;2.67;2.45;;;44.70;28.00;;;;;;899921;155;26317;-76
2023/07/04 08:50:49;;;;;;;3.17;2.20;;;44.70;27.70;;;;;;896675;155;26262;-76
2023/07/04 08:53:18;;;;;;;2.50;2.00;;;44.60;27.30;;;;;;900524;155;26449;-76
2023/07/04 08:55:48;;;;;;;3.77;2.27;;;44.50;27.20;;;;;;894640;157;26293;-76
2023/07/04 08:58:14;;;;;;;2.30;2.10;;;44.40;27.40;;;;;;894427;155;26378;-76
2023/07/04 09:00:44;;;;;;;3.50;2.27;;;44.30;27.20;;;;;;899533;155;26388;-76
2023/07/04 09:03:29;;;;;;;3.55;2.10;;;44.20;27.20;;;;;;898777;155;26325;-76
2023/07/04 09:06:14;;;;;;;3.25;2.08;;;44.20;27.30;;;;;;899034;155;26334;-75
2023/07/04 09:08:58;;;;;;;2.10;1.77;;;44.20;27.30;;;;;;868393;161;26316;-76
2023/07/04 09:11:25;;;;;;;2.52;2.00;;;44.30;27.00;;;;;;898988;158;26274;-76
2023/07/04 09:13:51;;;;;;;2.55;2.10;;;44.20;26.80;;;;;;897919;155;26295;-76
2023/07/04 09:16:36;;;;;;;2.30;2.00;;;44.20;26.70;;;;;;886903;155;26321;-75
2023/07/04 09:19:03;;;;;;;2.72;2.17;;;44.10;26.60;;;;;;899209;155;26445;-75
2023/07/04 09:21:29;;;;;;;3.17;2.05;;;44.00;26.60;;;;;;898316;155;26251;-76
2023/07/04 09:23:58;;;;;;;2.77;2.02;;;43.90;26.70;;;;;;899909;155;26270;-76
2023/07/04 09:26:24;;;;;;;2.47;2.17;;;44.00;26.80;;;;;;897904;155;26330;-76
2023/07/04 09:28:49;;;;;;;4.12;2.20;;;44.00;26.60;;;;;;899887;155;26328;-76
2023/07/04 09:31:24;;;;;;;2.52;1.98;;;44.10;26.50;;;;;;899487;155;26771;-76
2023/07/04 09:33:54;;;;;;;2.27;2.08;;;44.20;26.30;;;;;;896902;155;26401;-76
2023/07/04 09:36:20;;;;;;;2.45;2.17;;;44.20;26.30;;;;;;899128;157;26418;-76
2023/07/04 09:38:55;;;;;;;2.42;2.22;;;44.20;26.20;;;;;;899698;155;26311;-75
2023/07/04 09:41:28;;;;;;;2.87;2.42;;;44.20;26.00;;;;;;897726;155;26387;-76
2023/07/04 09:43:54;;;;;;;3.77;2.47;;;44.20;26.00;;;;;;890842;157;26293;-76
2023/07/04 09:46:27;;;;;;;5.15;2.40;;;44.20;25.90;;;;;;898721;155;26328;-76
2023/07/04 09:48:54;;;;;;;2.58;2.17;;;44.10;25.70;;;;;;899782;155;26379;-76
2023/07/04 09:51:21;;;;;;;2.65;2.40;;;44.00;25.70;;;;;;900113;155;26301;-76
2023/07/04 09:53:47;;;;;;;3.20;2.45;;;43.80;25.80;;;;;;898922;155;26240;-76
2023/07/04 09:56:13;;;;;;;3.02;2.70;;;43.70;25.50;;;;;;899343;155;26329;-76
2023/07/04 09:58:40;;;;;;;2.47;2.15;;;43.60;25.60;;;;;;896912;155;26261;-76
2023/07/04 10:01:12;;;;;;;4.87;2.72;;;43.50;25.60;;;;;;900427;155;26293;-75
2023/07/04 10:03:39;;;;;;;2.50;2.30;;;43.30;25.40;;;;;;898577;155;26410;-76
2023/07/04 10:06:06;;;;;;;3.25;2.55;;;43.10;25.40;;;;;;897864;155;26333;-76
2023/07/04 10:08:33;;;;;;;3.00;2.35;;;42.80;25.10;;;;;;898039;155;26378;-76
2023/07/04 10:10:58;;;;;;;3.22;2.60;;;42.40;25.10;;;;;;899075;155;26316;-76
2023/07/04 10:13:35;;;;;;;5.47;3.10;;;41.90;25.20;;;;;;898759;155;26362;-75
2023/07/04 10:16:01;;;;;;;4.20;3.00;;;41.50;25.30;;;;;;900153;155;26389;-75
2023/07/04 10:18:30;;;;;;;3.50;3.20;;;41.00;25.30;;;;;;898535;155;26318;-75
2023/07/04 10:20:57;;;;;;;3.92;3.33;;;40.50;25.30;;;;;;898345;155;26380;-76
2023/07/04 10:23:23;;;;;;;3.87;3.40;;;40.10;25.50;;;;;;898913;155;26299;-76
2023/07/04 10:25:50;;;;;;;6.03;3.10;;;39.70;25.70;;;;;;899059;155;26321;-76
2023/07/04 10:28:17;;;;;;;3.70;3.40;;;39.30;25.80;;;;;;901004;155;26329;-76
2023/07/04 10:30:43;;;;;;;4.30;3.65;;;38.90;25.90;;;;;;898616;155;26328;-76
2023/07/04 10:33:19;;;;;;;5.37;3.83;;;38.60;26.00;;;;;;899116;155;26321;-76
2023/07/04 10:35:46;;;;;;;4.25;3.83;;;38.30;26.30;;;;;;895021;155;26362;-76
2023/07/04 10:38:22;;;;;;;3.80;3.20;;;38.00;26.80;;;;;;899490;155;27743;-76
2023/07/04 10:40:48;;;;;;;4.08;3.67;;;37.60;26.50;;;;;;898011;155;27532;-75
2023/07/04 10:43:14;;;;;;;4.25;3.72;;;37.30;26.60;;;;;;897766;155;27854;-75
2023/07/04 10:45:41;;;;;;;4.00;3.58;;;37.00;26.70;;;;;;895773;155;26270;-76
2023/07/04 10:48:10;;;;;;;4.08;3.67;;;36.70;26.90;;;;;;898038;155;27391;-75
2023/07/04 10:50:37;;;;;;;4.33;3.92;;;36.50;26.90;;;;;;899079;155;27526;-75
2023/07/04 10:53:04;;;;;;;4.80;3.90;;;36.30;27.20;;;;;;900419;155;27398;-76
2023/07/04 10:55:36;;;;;;;4.10;3.80;;;36.00;27.20;;;;;;897205;155;27361;-75
2023/07/04 10:58:04;;;;;;;4.70;4.30;;;35.80;27.20;;;;;;896821;155;27396;-75
2023/07/04 11:00:29;;;;;;;4.50;4.10;;;35.60;27.30;;;;;;898076;155;27447;-75
2023/07/04 11:02:55;;;;;;;3.58;3.27;;;35.40;27.40;;;;;;898167;155;27445;-75
2023/07/04 11:05:25;;;;;;;4.35;3.95;;;35.20;27.40;;;;;;899244;155;27418;-75
2023/07/04 11:07:51;;;;;;;4.45;3.87;;;34.90;27.40;;;;;;897558;155;27462;-75
2023/07/04 11:10:18;;;;;;;4.87;4.28;;;34.60;27.50;;;;;;898191;155;27526;-75
2023/07/04 11:12:45;;;;;;;9.75;3.92;;;34.40;27.50;;;;;;898886;154;27354;-76
2023/07/04 11:15:18;;;;;;;4.90;3.92;;;34.20;27.70;;;;;;898817;155;27358;-75
2023/07/04 11:17:44;;;;;;;4.70;4.15;;;33.90;27.80;;;;;;898435;155;27504;-75
2023/07/04 11:20:17;;;;;;;10.53;4.08;;;33.70;27.80;;;;;;898096;155;27415;-75
2023/07/04 11:22:52;;;;;;;4.47;4.08;;;33.50;27.90;;;;;;897868;155;27389;-75
2023/07/04 11:25:25;;;;;;;4.10;3.80;;;33.30;28.00;;;;;;897796;155;28017;-75
2023/07/04 11:28:16;;;;;;;4.03;3.72;;;33.10;28.30;;;;;;898677;155;27354;-75
2023/07/04 11:30:42;;;;;;;5.00;4.50;;;32.90;28.40;;;;;;899545;155;27430;-75
2023/07/04 11:33:09;;;;;;;5.15;4.70;;;32.80;28.40;;;;;;900882;155;27502;-74
2023/07/04 11:35:35;;;;;;;4.50;4.08;;;32.70;28.50;;;;;;895703;155;27485;-75
2023/07/04 11:38:05;;;;;;;4.60;4.20;;;32.60;28.50;;;;;;900342;155;27304;-75
2023/07/04 11:40:47;;;;;;;5.45;4.40;;;32.50;29.00;;;;;;897265;155;27403;-75
2023/07/04 11:43:16;;;;;;;5.00;4.53;;;32.50;28.70;;;;;;898642;157;27390;-74
2023/07/04 11:45:43;;;;;;;4.30;3.85;;;32.40;28.40;;;;;;897218;155;27521;-75
2023/07/04 11:48:13;;;;;;;5.00;4.50;;;32.30;29.00;;;;;;898685;155;27398;-75
2023/07/04 11:50:45;;;;;;;5.55;5.08;;;32.30;28.90;;;;;;899360;155;27506;-75
2023/07/04 11:53:11;;;;;;;5.33;4.83;;;32.30;29.00;;;;;;897571;157;27482;-75
2023/07/04 11:55:38;;;;;;;5.55;4.90;;;32.30;29.00;;;;;;897031;155;27413;-75
2023/07/04 11:58:07;;;;;;;5.53;5.03;;;32.30;29.00;;;;;;898821;155;27341;-75
2023/07/04 12:00:40;;;;;;;5.75;4.90;;;32.30;29.00;;;;;;898355;155;27402;-75
2023/07/04 12:03:19;;;;;;;4.90;4.50;;;32.30;28.90;;;;;;899414;158;27479;-75
2023/07/04 12:05:45;;;;;;;4.37;3.98;;;32.30;29.00;;;;;;899386;157;27538;-75
2023/07/04 12:08:11;;;;;;;5.42;4.90;;;32.30;28.90;;;;;;898877;157;27397;-75
2023/07/04 12:10:38;;;;;;;6.22;5.00;;;32.30;29.10;;;;;;897777;157;27389;-75
2023/07/04 12:13:04;;;;;;;4.58;4.25;;;32.30;29.00;;;;;;899572;155;27336;-75
2023/07/04 12:15:31;;;;;;;5.15;4.75;;;32.30;29.00;;;;;;894903;155;27425;-75
2023/07/04 12:18:01;;;;;;;4.87;4.47;;;32.30;28.90;;;;;;898811;155;27882;-75
2023/07/04 12:20:27;;;;;;;5.15;4.70;;;32.40;28.90;;;;;;899121;155;27553;-75
2023/07/04 12:22:54;;;;;;;4.65;4.25;;;32.40;28.90;;;;;;899113;154;27377;-75
2023/07/04 12:25:26;;;;;;;5.30;4.80;;;32.40;28.80;;;;;;898705;155;27411;-75
2023/07/04 12:27:52;;;;;;;5.53;4.87;;;32.40;28.90;;;;;;898920;155;27318;-76
2023/07/04 12:30:19;;;;;;;4.65;4.25;;;32.40;29.00;;;;;;900597;155;27528;-75
2023/07/04 12:32:46;;;;;;;4.78;4.03;;;32.40;28.90;;;;;;898644;155;27446;-75
2023/07/04 12:35:12;;;;;;;5.55;4.30;;;32.30;29.00;;;;;;899784;157;27434;-75
2023/07/04 12:37:39;;;;;;;4.20;3.70;;;32.40;29.00;;;;;;899613;157;27424;-75
2023/07/04 12:40:06;;;;;;;4.80;4.28;;;32.40;29.00;;;;;;897036;155;27337;-75
2023/07/04 12:42:32;;;;;;;5.03;4.53;;;32.40;28.90;;;;;;897559;157;27359;-75
2023/07/04 12:44:59;;;;;;;4.62;4.22;;;32.40;28.70;;;;;;896208;155;27343;-75
2023/07/04 12:47:25;;;;;;;4.50;4.20;;;32.30;28.60;;;;;;898458;155;27518;-75
2023/07/04 12:49:52;;;;;;;4.67;4.15;;;32.30;28.60;;;;;;899546;155;27395;-75